createdAt,value
2023-03-25T00:01:56.101Z,5.10
2023-03-25T00:04:33.516Z,8.40
2023-03-25T00:07:01.432Z,4.53
2023-03-25T00:09:42.467Z,6.63
2023-03-25T00:12:23.396Z,5.73
2023-03-25T00:15:01.385Z,5.53
2023-03-25T00:17:38.478Z,6.00
2023-03-25T00:20:17.477Z,5.87
2023-03-25T00:22:54.368Z,7.10
2023-03-25T00:25:22.220Z,9.30
2023-03-25T00:27:57.447Z,6.20
2023-03-25T00:30:25.004Z,3.27
2023-03-25T00:33:04.472Z,9.43
2023-03-25T00:35:39.429Z,5.50
2023-03-25T00:38:19.361Z,6.33
2023-03-25T00:40:55.407Z,9.57
2023-03-25T00:43:23.953Z,4.37
2023-03-25T00:46:03.498Z,5.87
2023-03-25T00:48:34.346Z,7.63
2023-03-25T00:51:15.396Z,7.83
2023-03-25T00:53:49.433Z,6.37
2023-03-25T00:56:17.660Z,9.90
2023-03-25T00:58:52.501Z,7.83
2023-03-25T01:01:35.435Z,2.73
2023-03-25T01:04:09.404Z,7.87
2023-03-25T01:06:43.395Z,3.57
2023-03-25T01:09:18.726Z,7.23
2023-03-25T01:11:54.398Z,7.27
2023-03-25T01:14:24.447Z,7.57
2023-03-25T01:16:58.477Z,8.17
2023-03-25T01:19:26.156Z,4.17
2023-03-25T01:22:00.406Z,6.40
2023-03-25T01:24:28.056Z,7.37
2023-03-25T01:27:02.447Z,3.30
2023-03-25T01:29:29.946Z,4.57
2023-03-25T01:32:04.489Z,4.57
2023-03-25T01:34:40.373Z,6.40
2023-03-25T01:37:22.670Z,9.67
2023-03-25T01:39:50.272Z,9.30
2023-03-25T01:42:25.406Z,2.17
2023-03-25T01:44:59.427Z,5.93
2023-03-25T01:47:27.301Z,3.60
2023-03-25T01:50:01.378Z,7.80
2023-03-25T01:52:37.394Z,5.83
2023-03-25T01:55:13.437Z,7.43
2023-03-25T01:57:43.995Z,9.70
2023-03-25T02:03:10.413Z,5.20
2023-03-25T02:05:56.511Z,3.50
2023-03-25T02:08:26.000Z,5.90
2023-03-25T02:11:00.448Z,10.17
2023-03-25T02:13:34.484Z,4.10
2023-03-25T02:16:12.133Z,6.60
2023-03-25T02:19:09.404Z,7.60
2023-03-25T02:22:11.935Z,10.60
2023-03-25T02:24:50.424Z,2.93
2023-03-25T02:27:55.726Z,2.87
2023-03-25T02:30:52.435Z,0.63
2023-03-25T02:33:47.242Z,3.30
2023-03-25T02:36:48.416Z,0.43
2023-03-25T02:39:29.447Z,3.10
2023-03-25T02:42:18.516Z,0.70
2023-03-25T02:45:01.460Z,1.20
2023-03-25T02:47:42.524Z,0.47
2023-03-25T02:50:35.439Z,1.97
2023-03-25T02:53:15.526Z,1.10
2023-03-25T02:55:50.555Z,1.43
2023-03-25T02:58:21.715Z,1.73
2023-03-25T03:00:58.499Z,1.67
2023-03-25T03:03:32.585Z,0.63
2023-03-25T03:06:09.462Z,2.20
2023-03-25T03:08:56.377Z,2.07
2023-03-25T03:12:00.595Z,1.57
2023-03-25T03:15:00.434Z,1.43
2023-03-25T03:18:09.536Z,2.63
2023-03-25T03:20:50.322Z,2.27
2023-03-25T03:23:43.414Z,4.70
2023-03-25T03:26:45.431Z,2.87
2023-03-25T03:29:34.447Z,2.57
2023-03-25T03:32:35.151Z,4.23
2023-03-25T03:35:15.445Z,3.90
2023-03-25T03:37:53.400Z,0.93
2023-03-25T03:40:23.482Z,3.00
2023-03-25T03:43:00.446Z,1.70
2023-03-25T03:46:04.467Z,4.97
2023-03-25T03:48:49.493Z,1.90
2023-03-25T03:51:29.566Z,3.93
2023-03-25T03:54:09.410Z,1.60
2023-03-25T03:56:46.890Z,8.07
2023-03-25T03:59:30.462Z,3.10
2023-03-25T04:02:10.486Z,2.90
2023-03-25T04:04:51.461Z,2.87
2023-03-25T04:07:34.385Z,2.40
2023-03-25T04:10:21.408Z,2.37
2023-03-25T04:12:59.393Z,2.37
2023-03-25T04:15:33.468Z,4.27
2023-03-25T04:18:08.471Z,3.90
2023-03-25T04:20:36.912Z,2.30
2023-03-25T04:23:11.432Z,6.90
2023-03-25T04:25:38.965Z,3.60
2023-03-25T04:28:13.430Z,6.53
2023-03-25T04:30:48.433Z,4.93
2023-03-25T04:33:15.991Z,6.83
2023-03-25T04:35:50.687Z,3.63
2023-03-25T04:38:19.517Z,5.73
2023-03-25T04:40:53.508Z,2.87
2023-03-25T04:43:21.188Z,7.20
2023-03-25T04:46:00.563Z,7.20
2023-03-25T04:48:30.955Z,6.50
2023-03-25T04:51:10.442Z,4.50
2023-03-25T04:53:39.035Z,3.50
2023-03-25T04:56:19.445Z,8.27
2023-03-25T04:58:54.460Z,6.10
2023-03-25T05:01:38.027Z,4.17
2023-03-25T05:04:13.466Z,5.00
2023-03-25T05:06:43.727Z,5.07
2023-03-25T05:09:23.483Z,10.20
2023-03-25T05:11:53.246Z,4.63
2023-03-25T05:14:29.460Z,3.90
2023-03-25T05:17:06.469Z,5.80
2023-03-25T05:19:35.532Z,7.03
2023-03-25T05:22:11.433Z,5.63
2023-03-25T05:24:39.442Z,4.53
2023-03-25T05:27:13.465Z,3.73
2023-03-25T05:29:44.792Z,4.10
2023-03-25T05:32:24.529Z,4.57
2023-03-25T05:34:59.438Z,6.87
2023-03-25T05:37:27.393Z,8.47
2023-03-25T05:40:01.495Z,5.87
2023-03-25T05:42:29.078Z,5.00
2023-03-25T05:45:04.418Z,6.40
2023-03-25T05:47:38.473Z,9.20
2023-03-25T05:50:12.399Z,6.67
2023-03-25T05:52:41.999Z,7.43
2023-03-25T05:55:24.463Z,5.03
2023-03-25T05:57:52.430Z,6.07
2023-03-25T06:00:29.627Z,4.70
2023-03-25T06:03:05.564Z,9.90
2023-03-25T06:05:40.431Z,6.17
2023-03-25T06:08:17.444Z,2.77
2023-03-25T06:10:52.440Z,5.00
2023-03-25T06:13:20.572Z,5.37
2023-03-25T06:15:54.550Z,8.20
2023-03-25T06:18:31.443Z,4.93
2023-03-25T06:21:07.496Z,7.73
2023-03-25T06:23:35.615Z,6.63
2023-03-25T06:26:11.471Z,9.17
2023-03-25T06:28:46.474Z,5.73
2023-03-25T06:31:34.179Z,7.83
2023-03-25T06:34:02.534Z,8.27
2023-03-25T06:36:38.454Z,6.60
2023-03-25T06:39:08.531Z,10.47
2023-03-25T06:41:44.457Z,7.07
2023-03-25T06:44:24.810Z,7.00
2023-03-25T06:46:59.439Z,4.13
2023-03-25T06:49:33.496Z,4.23
2023-03-25T06:52:01.129Z,4.47
2023-03-25T06:54:38.740Z,3.67
2023-03-25T06:57:07.013Z,2.87
2023-03-25T06:59:34.790Z,1.33
2023-03-25T07:02:08.475Z,4.57
2023-03-25T07:04:44.111Z,4.83
2023-03-25T07:07:18.475Z,1.57
2023-03-25T07:09:50.548Z,2.63
2023-03-25T07:12:25.480Z,5.40
2023-03-25T07:14:55.111Z,3.50
2023-03-25T07:17:30.535Z,1.00
2023-03-25T07:20:05.477Z,4.13
2023-03-25T07:22:40.468Z,3.33
2023-03-25T07:25:08.719Z,2.40
2023-03-25T07:27:43.468Z,5.40
2023-03-25T07:30:11.486Z,4.10
2023-03-25T07:32:46.530Z,2.30
2023-03-25T07:35:14.928Z,3.63
2023-03-25T07:38:07.456Z,3.40
2023-03-25T07:40:41.548Z,3.17
2023-03-25T07:43:18.048Z,4.73
2023-03-25T07:46:05.557Z,2.40
2023-03-25T07:48:40.433Z,4.20
2023-03-25T07:51:09.229Z,4.33
2023-03-25T07:53:45.514Z,2.40
2023-03-25T07:56:14.347Z,1.87
2023-03-25T07:58:48.494Z,3.80
2023-03-25T08:01:16.576Z,1.57
2023-03-25T08:03:59.531Z,2.27
2023-03-25T08:06:27.386Z,2.27
2023-03-25T08:09:02.484Z,3.13
2023-03-25T08:11:32.566Z,1.97
2023-03-25T08:14:09.551Z,4.33
2023-03-25T08:16:37.730Z,3.27
2023-03-25T08:19:12.482Z,2.07
2023-03-25T08:21:47.431Z,3.27
2023-03-25T08:24:22.534Z,2.10
2023-03-25T08:26:50.400Z,6.10
2023-03-25T08:29:24.513Z,3.03
2023-03-25T08:31:58.536Z,2.77
2023-03-25T08:34:34.498Z,2.67
2023-03-25T08:37:02.216Z,2.53
2023-03-25T08:39:36.460Z,0.67
2023-03-25T08:42:10.554Z,1.17
2023-03-25T08:44:38.814Z,0.87
2023-03-25T08:47:20.472Z,0.10
2023-03-25T08:49:54.475Z,0.63
2023-03-25T08:52:23.635Z,0.30
2023-03-25T08:54:57.513Z,0.40
2023-03-25T08:57:26.245Z,0.57
2023-03-25T09:00:00.460Z,0.13
2023-03-25T09:02:35.477Z,0.40
2023-03-25T09:05:11.521Z,0.33
2023-03-25T09:07:46.479Z,0.40
2023-03-25T09:10:20.466Z,0.37
2023-03-25T09:12:48.428Z,0.07
2023-03-25T09:15:22.526Z,0.10
2023-03-25T09:17:50.214Z,1.60
2023-03-25T09:20:25.543Z,0.27
2023-03-25T09:22:59.459Z,0.47
2023-03-25T09:25:33.489Z,0.33
2023-03-25T09:28:03.206Z,1.37
2023-03-25T09:30:37.488Z,0.37
2023-03-25T09:33:11.691Z,0.27
2023-03-25T09:35:47.576Z,0.83
2023-03-25T09:38:16.246Z,2.27
2023-03-25T09:40:51.852Z,1.93
2023-03-25T09:43:33.065Z,1.23
2023-03-25T09:46:07.633Z,2.80
2023-03-25T09:48:52.612Z,1.07
2023-03-25T09:51:35.545Z,1.13
2023-03-25T09:54:36.558Z,1.40
2023-03-25T09:57:14.622Z,3.53
2023-03-25T10:00:03.628Z,0.93
2023-03-25T10:03:00.671Z,3.03
2023-03-25T10:05:55.566Z,1.50
2023-03-25T10:08:48.230Z,3.70
2023-03-25T10:11:32.504Z,0.80
2023-03-25T10:14:20.519Z,1.80
2023-03-25T10:16:58.179Z,2.95
2023-03-25T10:19:57.532Z,2.25
2023-03-25T10:22:56.547Z,0.73
2023-03-25T10:25:38.101Z,0.73
2023-03-25T10:28:07.573Z,2.83
2023-03-25T10:30:49.552Z,1.63
2023-03-25T10:33:33.390Z,1.90
2023-03-25T10:36:09.630Z,0.20
2023-03-25T10:38:38.010Z,2.53
2023-03-25T10:41:30.546Z,1.70
2023-03-25T10:43:58.138Z,2.70
2023-03-25T10:47:09.610Z,1.70
2023-03-25T10:49:48.545Z,1.90
2023-03-25T10:52:23.530Z,1.67
2023-03-25T10:54:54.640Z,2.17
2023-03-25T10:57:35.582Z,2.70
2023-03-25T11:00:18.817Z,1.00
2023-03-25T11:02:54.678Z,3.10
2023-03-25T11:05:32.563Z,3.03
2023-03-25T11:08:18.216Z,2.70
2023-03-25T11:11:04.948Z,2.67
2023-03-25T11:13:39.590Z,2.67
2023-03-25T11:16:14.661Z,1.43
2023-03-25T11:18:42.570Z,2.65
2023-03-25T11:21:20.556Z,3.20
2023-03-25T11:23:50.681Z,3.90
2023-03-25T11:26:33.552Z,3.88
2023-03-25T11:29:15.805Z,2.40
2023-03-25T11:31:50.640Z,0.93
2023-03-25T11:34:29.620Z,2.57
2023-03-25T11:37:13.601Z,3.43
2023-03-25T11:39:42.894Z,2.63
2023-03-25T11:42:24.542Z,5.47
2023-03-25T11:45:00.548Z,1.37
2023-03-25T11:47:53.645Z,2.87
2023-03-25T11:50:33.558Z,2.20
2023-03-25T11:53:10.536Z,2.03
2023-03-25T11:55:54.553Z,5.10
2023-03-25T11:58:38.603Z,2.43
2023-03-25T12:01:25.787Z,2.23
2023-03-25T12:04:13.647Z,1.50
2023-03-25T12:07:09.514Z,2.63
2023-03-25T12:09:44.556Z,0.93
2023-03-25T12:13:05.594Z,0.70
2023-03-25T12:15:53.142Z,1.03
2023-03-25T12:19:06.566Z,2.53
2023-03-25T12:21:49.534Z,1.20
2023-03-25T12:24:43.612Z,1.40
2023-03-25T12:27:29.536Z,1.67
2023-03-25T12:30:25.597Z,1.67
2023-03-25T12:33:28.528Z,3.53
2023-03-25T12:36:33.630Z,0.63
2023-03-25T12:39:41.695Z,3.13
2023-03-25T12:42:23.569Z,3.30
2023-03-25T12:45:02.497Z,1.88
2023-03-25T12:47:49.635Z,1.40
2023-03-25T12:50:28.140Z,1.63
2023-03-25T12:53:29.532Z,2.30
2023-03-25T12:56:22.987Z,2.67
2023-03-25T12:59:19.594Z,1.67
2023-03-25T13:02:19.587Z,2.07
2023-03-25T13:05:35.630Z,3.20
2023-03-25T13:08:37.522Z,4.70
2023-03-25T13:11:22.555Z,2.42
2023-03-25T13:14:00.813Z,1.00
2023-03-25T13:16:38.701Z,1.75
2023-03-25T13:19:28.582Z,2.30
2023-03-25T13:22:24.859Z,1.20
2023-03-25T13:25:14.583Z,3.13
2023-03-25T13:27:43.474Z,1.75
2023-03-25T13:30:36.540Z,3.10
2023-03-25T13:33:29.264Z,2.05
2023-03-25T13:36:24.572Z,2.83
2023-03-25T13:39:05.599Z,3.58
2023-03-25T13:41:52.222Z,2.38
2023-03-25T13:44:34.578Z,4.05
2023-03-25T13:47:27.649Z,3.27
2023-03-25T13:50:08.620Z,1.63
2023-03-25T13:52:43.056Z,4.20
2023-03-25T13:55:23.575Z,1.70
2023-03-25T13:58:28.141Z,4.33
2023-03-25T14:01:15.577Z,4.03
2023-03-25T14:04:00.941Z,2.67
2023-03-25T14:06:51.605Z,2.17
2023-03-25T14:09:41.857Z,2.63
2023-03-25T14:12:41.695Z,3.60
2023-03-25T14:15:22.041Z,5.03
2023-03-25T14:18:00.614Z,3.08
2023-03-25T14:20:35.772Z,4.53
2023-03-25T14:23:19.602Z,5.28
2023-03-25T14:25:57.928Z,4.90
2023-03-25T14:28:50.602Z,1.95
2023-03-25T14:31:29.646Z,2.60
2023-03-25T14:34:10.647Z,4.97
2023-03-25T14:36:41.276Z,6.27
2023-03-25T14:39:42.654Z,4.07
2023-03-25T14:42:19.646Z,6.25
2023-03-25T14:44:54.482Z,4.97
2023-03-25T14:47:47.728Z,1.95
2023-03-25T14:50:21.766Z,2.65
2023-03-25T14:52:59.615Z,4.63
2023-03-25T14:55:30.058Z,3.97
2023-03-25T14:58:12.628Z,4.77
2023-03-25T15:00:56.730Z,2.97
2023-03-25T15:03:41.662Z,6.83
2023-03-25T15:06:22.633Z,3.77
2023-03-25T15:09:03.643Z,3.00
2023-03-25T15:11:37.728Z,5.77
2023-03-25T15:14:21.675Z,3.23
2023-03-25T15:16:50.032Z,3.45
2023-03-25T15:19:28.661Z,1.55
2023-03-25T15:22:01.142Z,1.93
2023-03-25T15:24:43.696Z,2.10
2023-03-25T15:27:29.635Z,3.03
2023-03-25T15:30:15.186Z,2.25
2023-03-25T15:33:01.748Z,2.75
2023-03-25T15:36:14.268Z,3.95
2023-03-25T15:39:10.232Z,2.65
2023-03-25T15:41:59.264Z,2.45
2023-03-25T15:44:51.226Z,1.23
2023-03-25T15:47:49.382Z,1.88
2023-03-25T15:50:56.183Z,3.50
2023-03-25T15:53:43.141Z,3.65
2023-03-25T15:56:25.235Z,4.30
2023-03-25T15:59:07.267Z,4.35
2023-03-25T16:01:46.313Z,3.83
2023-03-25T16:04:46.359Z,2.42
2023-03-25T16:07:23.300Z,4.22
2023-03-25T16:09:51.615Z,3.43
2023-03-25T16:12:32.252Z,2.97
2023-03-25T16:15:00.031Z,1.93
2023-03-25T16:17:41.238Z,2.03
2023-03-25T16:20:18.411Z,3.43
2023-03-25T16:22:58.227Z,5.17
2023-03-25T16:25:35.788Z,4.60
2023-03-25T16:28:14.277Z,3.40
2023-03-25T16:30:44.391Z,1.97
2023-03-25T16:33:14.012Z,4.50
2023-03-25T16:35:56.276Z,4.63
2023-03-25T16:38:25.662Z,5.23
2023-03-25T16:41:11.217Z,3.50
2023-03-25T16:43:46.216Z,4.00
2023-03-25T16:46:24.235Z,3.20
2023-03-25T16:49:06.240Z,2.93
2023-03-25T16:51:44.251Z,2.63
2023-03-25T16:54:29.222Z,5.67
2023-03-25T16:57:04.214Z,3.83
2023-03-25T16:59:36.882Z,2.93
2023-03-25T17:02:29.357Z,1.83
2023-03-25T17:05:26.250Z,8.03
2023-03-25T17:07:59.357Z,2.83
2023-03-25T17:10:37.238Z,2.80
2023-03-25T17:13:11.377Z,5.97
2023-03-25T17:15:48.728Z,2.87
2023-03-25T17:18:18.203Z,3.47
2023-03-25T17:20:57.507Z,5.83
2023-03-25T17:23:48.239Z,2.20
2023-03-25T17:26:27.238Z,4.57
2023-03-25T17:29:01.236Z,3.17
2023-03-25T17:31:43.245Z,6.17
2023-03-25T17:34:25.049Z,6.53
2023-03-25T17:37:09.270Z,2.53
2023-03-25T17:39:36.965Z,3.03
2023-03-25T17:42:25.334Z,2.23
2023-03-25T17:44:53.892Z,3.90
2023-03-25T17:47:29.266Z,1.50
2023-03-25T17:50:10.249Z,2.80
2023-03-25T17:52:39.543Z,4.67
2023-03-25T17:55:14.263Z,3.17
2023-03-25T17:57:42.659Z,3.47
2023-03-25T18:00:26.241Z,3.63
2023-03-25T18:02:53.888Z,3.73
2023-03-25T18:05:28.274Z,5.17
2023-03-25T18:07:56.604Z,3.37
2023-03-25T18:10:32.300Z,3.67
2023-03-25T18:13:00.263Z,4.97
2023-03-25T18:15:35.200Z,5.93
2023-03-25T18:18:06.665Z,2.57
2023-03-25T18:20:43.230Z,2.50
2023-03-25T18:23:17.223Z,3.03
2023-03-25T18:25:53.596Z,3.63
2023-03-25T18:28:21.874Z,3.40
2023-03-25T18:31:08.372Z,1.77
2023-03-25T18:33:43.256Z,3.33
2023-03-25T18:36:12.066Z,2.53
2023-03-25T18:38:46.386Z,1.80
2023-03-25T18:41:22.251Z,4.23
2023-03-25T18:43:56.259Z,2.03
2023-03-25T18:46:26.119Z,3.47
2023-03-25T18:49:09.208Z,1.27
2023-03-25T18:51:44.270Z,2.70
2023-03-25T18:54:19.316Z,3.50
2023-03-25T18:56:55.318Z,3.30
2023-03-25T18:59:24.012Z,6.03
2023-03-25T19:02:00.297Z,4.93
2023-03-25T19:04:36.252Z,4.63
2023-03-25T19:07:04.862Z,5.53
2023-03-25T19:09:39.238Z,7.17
2023-03-25T19:12:07.032Z,3.57
2023-03-25T19:14:41.279Z,2.70
2023-03-25T19:17:16.314Z,4.83
2023-03-25T19:19:50.288Z,3.00
2023-03-25T19:22:17.959Z,3.03
2023-03-25T19:24:53.236Z,2.13
2023-03-25T19:27:27.234Z,3.10
2023-03-25T19:30:01.258Z,2.63
2023-03-25T19:32:30.237Z,2.83
2023-03-25T19:35:04.309Z,4.80
2023-03-25T19:37:35.498Z,2.43
2023-03-25T19:40:15.232Z,3.20
2023-03-25T19:42:43.068Z,3.37
2023-03-25T19:45:20.258Z,1.67
2023-03-25T19:48:02.302Z,3.53
2023-03-25T19:50:43.305Z,2.47
2023-03-25T19:53:11.752Z,2.37
2023-03-25T19:55:51.549Z,3.17
2023-03-25T19:58:28.256Z,3.77
2023-03-25T20:01:02.283Z,1.77
2023-03-25T20:03:32.045Z,5.10
2023-03-25T20:06:15.247Z,7.73
2023-03-25T20:08:50.346Z,7.50
2023-03-25T20:11:17.921Z,3.30
2023-03-25T20:13:53.294Z,4.13
2023-03-25T20:16:22.521Z,7.03
2023-03-25T20:18:57.224Z,5.17
2023-03-25T20:21:26.002Z,4.50
2023-03-25T20:24:00.256Z,6.13
2023-03-25T20:26:34.249Z,6.70
2023-03-25T20:29:08.390Z,2.50
2023-03-25T20:31:43.341Z,9.30
2023-03-25T20:34:10.944Z,4.37
2023-03-25T20:36:45.307Z,4.03
2023-03-25T20:39:12.978Z,6.33
2023-03-25T20:41:47.267Z,7.20
2023-03-25T20:44:21.276Z,5.10
2023-03-25T20:46:49.969Z,6.90
2023-03-25T20:49:31.303Z,6.07
2023-03-25T20:52:00.144Z,4.67
2023-03-25T20:54:35.249Z,8.77
2023-03-25T20:57:02.862Z,5.87
2023-03-25T20:59:38.282Z,5.63
2023-03-25T21:02:06.603Z,2.73
2023-03-25T21:04:40.446Z,8.37
2023-03-25T21:07:10.430Z,8.70
2023-03-25T21:09:45.255Z,6.47
2023-03-25T21:12:21.797Z,6.30
2023-03-25T21:14:52.739Z,8.73
2023-03-25T21:17:28.300Z,4.23
2023-03-25T21:19:56.007Z,6.47
2023-03-25T21:22:30.327Z,5.60
2023-03-25T21:25:00.786Z,4.93
2023-03-25T21:27:40.087Z,6.80
2023-03-25T21:30:12.442Z,5.07
2023-03-25T21:32:46.441Z,5.07
2023-03-25T21:35:20.315Z,2.63
2023-03-25T21:37:55.301Z,6.73
2023-03-25T21:40:39.302Z,9.87
2023-03-25T21:43:13.385Z,8.63
2023-03-25T21:45:42.045Z,5.80
2023-03-25T21:48:16.597Z,8.03
2023-03-25T21:51:01.718Z,6.77
2023-03-25T21:53:38.437Z,5.43
2023-03-25T21:56:10.337Z,5.53
2023-03-25T21:58:46.334Z,6.80
2023-03-25T22:01:23.486Z,8.03
2023-03-25T22:04:02.523Z,4.63
2023-03-25T22:06:40.315Z,6.63
2023-03-25T22:09:09.454Z,12.30
2023-03-25T22:11:44.282Z,6.60
2023-03-25T22:14:18.352Z,13.53
2023-03-25T22:16:45.986Z,10.30
2023-03-25T22:19:21.372Z,7.97
2023-03-25T22:21:50.216Z,10.40
2023-03-25T22:24:24.317Z,10.17
2023-03-25T22:26:52.211Z,9.47
2023-03-25T22:29:26.304Z,5.30
2023-03-25T22:31:55.866Z,5.23
2023-03-25T22:34:30.320Z,9.13
2023-03-25T22:36:57.825Z,5.10
2023-03-25T22:39:32.318Z,5.43
2023-03-25T22:42:07.370Z,8.50
2023-03-25T22:44:39.996Z,4.53
2023-03-25T22:47:14.318Z,4.90
2023-03-25T22:49:48.321Z,3.73
2023-03-25T22:52:22.281Z,6.97
2023-03-25T22:54:49.862Z,4.17
2023-03-25T22:57:25.320Z,5.60
2023-03-25T22:59:59.282Z,10.60
2023-03-25T23:02:33.445Z,6.73
2023-03-25T23:05:08.311Z,4.73
2023-03-25T23:07:42.319Z,5.30
2023-03-25T23:10:10.037Z,11.07
2023-03-25T23:12:44.362Z,7.60
2023-03-25T23:15:20.301Z,6.47
2023-03-25T23:17:54.331Z,8.40
2023-03-25T23:20:22.506Z,8.90
2023-03-25T23:22:56.308Z,7.53
2023-03-25T23:25:30.330Z,9.33
2023-03-25T23:28:05.292Z,9.77
2023-03-25T23:30:39.321Z,8.80
2023-03-25T23:33:13.350Z,7.03
2023-03-25T23:35:41.078Z,8.83
2023-03-25T23:38:15.289Z,8.60
2023-03-25T23:40:42.757Z,12.00
2023-03-25T23:43:23.353Z,12.17
2023-03-25T23:45:53.461Z,13.13
2023-03-25T23:48:32.310Z,8.23
2023-03-25T23:51:15.315Z,8.87
2023-03-25T23:53:50.303Z,10.93
2023-03-25T23:56:27.505Z,10.87
2023-03-25T23:58:55.170Z,11.00
